Time;durP1;ratioP1;P1;durP2;ratioP2;P2;SDS_P1;SDS_P2;PMS_P1;PMS_P2;Temp;Humidity;BMP_temperature;BMP_pressure;BME280_temperature;BME280_humidity;BME280_pressure;Samples;Min_cycle;Max_cycle;Signal;HPM_P1;HPM_P2
2022/07/23 00:02:22;;;;;;;1999.90;999.90;;;18.00;99.90;;;;;;5035440;28;20415;-72
2022/07/23 00:04:48;;;;;;;1999.90;999.90;;;18.00;99.90;;;;;;5035444;28;20026;-71
2022/07/23 00:07:13;;;;;;;1999.90;999.90;;;18.00;99.90;;;;;;5035533;28;20032;-71
2022/07/23 00:09:39;;;;;;;1999.90;999.90;;;18.00;99.90;;;;;;5035135;28;20433;-72
2022/07/23 00:12:05;;;;;;;1999.90;999.90;;;18.00;99.90;;;;;;5035452;28;20018;-72
2022/07/23 00:14:31;;;;;;;1999.90;999.90;;;17.90;99.90;;;;;;5034687;28;20033;-72
2022/07/23 00:16:56;;;;;;;1999.90;999.90;;;17.90;99.90;;;;;;5033827;28;20072;-71
2022/07/23 00:19:22;;;;;;;1999.90;999.90;;;17.90;99.90;;;;;;5035101;28;20033;-72
2022/07/23 00:21:47;;;;;;;1999.90;999.90;;;17.80;99.90;;;;;;5034839;28;20096;-72
2022/07/23 00:24:13;;;;;;;1999.90;999.90;;;17.80;99.90;;;;;;5035381;28;20030;-71
2022/07/23 00:26:39;;;;;;;1999.90;999.90;;;17.80;99.90;;;;;;5034648;28;20401;-72
2022/07/23 00:29:05;;;;;;;1999.90;999.90;;;17.80;99.90;;;;;;5034709;28;20115;-72
2022/07/23 00:31:30;;;;;;;1999.90;999.90;;;17.70;99.90;;;;;;5035094;28;20017;-72
2022/07/23 00:33:56;;;;;;;1999.90;999.90;;;17.70;99.90;;;;;;5017019;28;20092;-71
2022/07/23 00:36:23;;;;;;;1999.90;999.90;;;17.70;99.90;;;;;;5035222;28;20017;-72
2022/07/23 00:38:49;;;;;;;1999.90;999.90;;;17.70;99.90;;;;;;5034459;28;20558;-71
2022/07/23 00:41:15;;;;;;;1999.90;999.90;;;17.60;99.90;;;;;;5034832;28;20493;-72
2022/07/23 00:43:41;;;;;;;1999.90;999.90;;;17.60;99.90;;;;;;5034705;28;20028;-72
2022/07/23 00:46:07;;;;;;;1999.90;999.90;;;17.60;99.90;;;;;;5034731;28;20531;-72
2022/07/23 00:48:32;;;;;;;1999.90;999.90;;;17.60;99.90;;;;;;5034835;28;20473;-71
2022/07/23 00:50:58;;;;;;;1999.90;999.90;;;17.60;99.90;;;;;;5034747;28;20032;-72
2022/07/23 00:53:24;;;;;;;1999.90;999.90;;;17.60;99.90;;;;;;5034868;28;20025;-72
2022/07/23 00:55:50;;;;;;;1999.90;999.90;;;17.60;99.90;;;;;;5034292;28;20097;-72
2022/07/23 00:58:17;;;;;;;1999.90;999.90;;;17.60;99.90;;;;;;5034435;28;20060;-72
2022/07/23 01:00:42;;;;;;;1999.90;999.90;;;17.50;99.90;;;;;;5034066;28;20048;-71
2022/07/23 01:03:08;;;;;;;1999.90;999.90;;;17.50;99.90;;;;;;5033449;28;20483;-72
2022/07/23 01:05:34;;;;;;;1999.90;999.90;;;17.40;99.90;;;;;;5034126;28;20022;-71
2022/07/23 01:08:00;;;;;;;1999.90;999.90;;;17.40;99.90;;;;;;5034486;28;20558;-72
2022/07/23 01:10:32;;;;;;;1999.90;999.90;;;17.40;99.90;;;;;;5034076;28;20036;-72
2022/07/23 01:13:09;;;;;;;1999.90;999.90;;;17.30;99.90;;;;;;5034068;28;20028;-71
2022/07/23 01:15:37;;;;;;;1999.90;999.90;;;17.30;99.90;;;;;;5033491;28;20056;-72
2022/07/23 01:18:05;;;;;;;1999.90;999.90;;;17.30;99.90;;;;;;5034205;28;20047;-72
2022/07/23 01:20:32;;;;;;;1999.90;999.90;;;17.30;99.90;;;;;;5033921;28;20052;-72
2022/07/23 01:22:57;;;;;;;1999.90;999.90;;;17.20;99.90;;;;;;5033589;28;20033;-72
2022/07/23 01:25:23;;;;;;;1999.90;999.90;;;17.20;99.90;;;;;;5033668;28;20033;-72
2022/07/23 01:27:51;;;;;;;1999.90;999.90;;;17.20;99.90;;;;;;5033570;28;20049;-72
2022/07/23 01:30:16;;;;;;;1999.90;999.90;;;17.20;99.90;;;;;;5034064;28;20378;-71
2022/07/23 01:32:42;;;;;;;1999.90;999.90;;;17.10;99.90;;;;;;5031904;28;20028;-72
2022/07/23 01:35:08;;;;;;;1999.90;999.90;;;17.10;99.90;;;;;;5033471;28;20029;-71
2022/07/23 01:37:34;;;;;;;1999.90;999.90;;;17.10;99.90;;;;;;5033651;28;20013;-72
2022/07/23 01:40:00;;;;;;;1999.90;999.90;;;17.10;99.90;;;;;;5033427;28;20083;-72
2022/07/23 01:42:26;;;;;;;1999.90;999.90;;;17.00;99.90;;;;;;5033837;28;20426;-72
2022/07/23 01:44:51;;;;;;;1999.90;999.90;;;17.00;99.90;;;;;;5033566;28;20029;-72
2022/07/23 01:47:17;;;;;;;1999.90;999.90;;;17.00;99.90;;;;;;5033461;28;20052;-72
2022/07/23 01:49:43;;;;;;;1999.90;999.90;;;17.00;99.90;;;;;;5033575;28;20055;-72
2022/07/23 01:52:10;;;;;;;1999.90;999.90;;;17.00;99.90;;;;;;5033465;28;20110;-71
2022/07/23 01:54:38;;;;;;;1999.90;999.90;;;17.00;99.90;;;;;;5033261;28;20021;-71
2022/07/23 01:57:05;;;;;;;1999.90;999.90;;;16.90;99.90;;;;;;5033358;28;20105;-72
2022/07/23 01:59:31;;;;;;;1999.90;999.90;;;16.90;99.90;;;;;;5033699;28;20057;-72
2022/07/23 02:01:56;;;;;;;1999.90;999.90;;;17.00;99.90;;;;;;5032725;28;20496;-71
2022/07/23 02:04:24;;;;;;;1999.90;999.90;;;16.90;99.90;;;;;;5013563;28;20040;-72
2022/07/23 02:06:50;;;;;;;1999.90;999.90;;;16.90;99.90;;;;;;5013650;28;20029;-71
2022/07/23 02:09:16;;;;;;;1999.90;999.90;;;16.90;99.90;;;;;;5013424;28;20033;-72
2022/07/23 02:11:41;;;;;;;1999.90;999.90;;;16.80;99.90;;;;;;5012994;28;20022;-72
2022/07/23 02:14:07;;;;;;;1999.90;999.90;;;16.80;99.90;;;;;;5028640;28;20374;-71
2022/07/23 02:16:33;;;;;;;1999.90;999.90;;;16.80;99.90;;;;;;5013406;28;20026;-72
2022/07/23 02:18:58;;;;;;;1999.90;999.90;;;16.70;99.90;;;;;;5013199;28;20034;-71
2022/07/23 02:21:24;;;;;;;1999.90;999.90;;;16.70;99.90;;;;;;5013355;28;20018;-70
2022/07/23 02:23:50;;;;;;;1999.90;999.90;;;16.70;99.90;;;;;;5013397;28;20030;-70
2022/07/23 02:26:15;;;;;;;1999.90;999.90;;;16.70;99.90;;;;;;5012987;28;20026;-72
2022/07/23 02:28:41;;;;;;;1999.90;999.90;;;16.70;99.90;;;;;;5012849;28;20046;-70
2022/07/23 02:31:07;;;;;;;1999.90;999.90;;;16.70;99.90;;;;;;5044893;28;20069;-71
2022/07/23 02:33:33;;;;;;;1999.90;999.90;;;16.70;99.90;;;;;;5012225;28;20030;-71
2022/07/23 02:35:59;;;;;;;1999.90;999.90;;;16.70;99.90;;;;;;5012214;28;20412;-72
2022/07/23 02:38:24;;;;;;;1999.90;999.90;;;16.70;99.90;;;;;;5023575;28;20100;-72
2022/07/23 02:40:50;;;;;;;1999.90;999.90;;;16.60;99.90;;;;;;5032474;28;20112;-71
2022/07/23 02:43:16;;;;;;;1999.90;999.90;;;16.50;99.90;;;;;;5032504;28;20108;-72
2022/07/23 02:45:41;;;;;;;1999.90;999.90;;;16.50;99.90;;;;;;5037014;28;20025;-72
2022/07/23 02:48:07;;;;;;;1999.90;999.90;;;16.40;99.90;;;;;;5036883;28;20084;-71
2022/07/23 02:50:32;;;;;;;1999.90;999.90;;;16.40;99.90;;;;;;5036889;28;20489;-72
2022/07/23 02:52:58;;;;;;;1999.90;999.90;;;16.40;99.90;;;;;;5036809;28;20022;-71
2022/07/23 02:55:24;;;;;;;1999.90;999.90;;;16.40;99.90;;;;;;5036556;28;20021;-72
2022/07/23 02:57:50;;;;;;;1999.90;999.90;;;16.40;99.90;;;;;;5036895;28;20490;-71
2022/07/23 03:00:16;;;;;;;1999.90;999.90;;;16.30;99.90;;;;;;5037108;28;20033;-72
2022/07/23 03:02:41;;;;;;;1999.90;999.90;;;16.20;99.90;;;;;;5036208;28;20105;-72
2022/07/23 03:05:07;;;;;;;1999.90;999.90;;;16.20;99.90;;;;;;5036563;28;20057;-72
2022/07/23 03:07:33;;;;;;;1999.90;999.90;;;16.10;99.90;;;;;;5036472;28;20084;-72
2022/07/23 03:09:59;;;;;;;1999.90;999.90;;;16.10;99.90;;;;;;5036321;28;20508;-71
2022/07/23 03:12:24;;;;;;;1999.90;999.90;;;16.00;99.90;;;;;;5036532;28;20030;-71
2022/07/23 03:14:50;;;;;;;1999.90;999.90;;;16.00;99.90;;;;;;5036313;28;20506;-71
2022/07/23 03:17:17;;;;;;;1999.90;999.90;;;15.90;99.90;;;;;;5036231;28;20105;-71
2022/07/23 03:19:42;;;;;;;1999.90;999.90;;;15.90;99.90;;;;;;5036129;28;20499;-72
2022/07/23 03:22:08;;;;;;;1999.90;999.90;;;15.80;99.90;;;;;;5036198;28;20060;-71
2022/07/23 03:27:18;;;;;;;1999.90;999.90;;;15.70;99.90;;;;;;5035948;28;20056;-71
2022/07/23 03:29:44;;;;;;;1999.90;999.90;;;15.70;99.90;;;;;;5036444;28;20400;-72
2022/07/23 03:32:09;;;;;;;1999.90;999.90;;;15.70;99.90;;;;;;5036084;28;20480;-72
2022/07/23 03:34:35;;;;;;;1999.90;999.90;;;15.70;99.90;;;;;;5035420;28;20021;-73
2022/07/23 03:37:01;;;;;;;1999.90;999.90;;;15.60;99.90;;;;;;5036395;28;20057;-70
2022/07/23 03:39:27;;;;;;;1999.90;999.90;;;15.60;99.90;;;;;;5035673;28;20030;-72
2022/07/23 03:41:52;;;;;;;1999.90;999.90;;;15.50;99.90;;;;;;5035981;28;20400;-71
2022/07/23 03:44:18;;;;;;;1999.90;999.90;;;15.60;99.90;;;;;;5036078;28;20462;-72
2022/07/23 03:46:44;;;;;;;1999.90;999.90;;;15.50;99.90;;;;;;5035900;28;20515;-72
2022/07/23 03:49:09;;;;;;;1999.90;999.90;;;15.50;99.90;;;;;;5035746;28;20108;-71
2022/07/23 03:51:35;;;;;;;1999.90;999.90;;;15.50;99.90;;;;;;5035796;28;20028;-71
2022/07/23 03:54:00;;;;;;;1999.90;999.90;;;15.40;99.90;;;;;;5035888;28;20108;-71
2022/07/23 03:56:26;;;;;;;1999.90;999.90;;;15.40;99.90;;;;;;5034707;28;20025;-72
2022/07/23 03:58:52;;;;;;;1999.90;999.90;;;15.40;99.90;;;;;;5035608;28;20021;-72
2022/07/23 04:01:17;;;;;;;1999.90;999.90;;;15.40;99.90;;;;;;5035517;28;20507;-71
2022/07/23 04:03:43;;;;;;;1999.90;999.90;;;15.30;99.90;;;;;;5035413;28;20017;-72
2022/07/23 04:06:10;;;;;;;1999.90;999.90;;;15.30;99.90;;;;;;5035854;28;20033;-71
2022/07/23 04:08:35;;;;;;;1999.90;999.90;;;15.30;99.90;;;;;;5050466;28;20083;-72
2022/07/23 04:11:01;;;;;;;1999.90;999.90;;;15.30;99.90;;;;;;5035118;28;20030;-72
2022/07/23 04:13:27;;;;;;;1999.90;999.90;;;15.20;99.90;;;;;;5035338;28;20171;-72
2022/07/23 04:15:52;;;;;;;1999.90;999.90;;;15.20;99.90;;;;;;5034693;28;20572;-71
2022/07/23 04:18:18;;;;;;;1999.90;999.90;;;15.20;99.90;;;;;;5035082;28;20428;-71
2022/07/23 04:20:44;;;;;;;1999.90;999.90;;;15.20;99.90;;;;;;5035320;28;20484;-70
2022/07/23 04:23:10;;;;;;;1999.90;999.90;;;15.20;99.90;;;;;;5033830;28;20080;-72
2022/07/23 04:25:36;;;;;;;1999.90;999.90;;;15.20;99.90;;;;;;5034703;28;20033;-72
2022/07/23 04:28:02;;;;;;;1999.90;999.90;;;15.20;99.90;;;;;;5034779;28;20073;-71
2022/07/23 04:30:27;;;;;;;1999.90;999.90;;;15.20;99.90;;;;;;5035189;28;20033;-72
2022/07/23 04:32:53;;;;;;;1999.90;999.90;;;15.20;99.90;;;;;;5034245;28;20017;-72
2022/07/23 04:35:19;;;;;;;1999.90;999.90;;;15.20;99.90;;;;;;5034842;28;20465;-71
2022/07/23 04:37:45;;;;;;;1999.90;999.90;;;15.20;99.90;;;;;;5034894;28;20021;-72
2022/07/23 04:40:12;;;;;;;1999.90;999.90;;;15.20;99.90;;;;;;5034582;28;20080;-72
2022/07/23 04:42:38;;;;;;;1999.90;999.90;;;15.20;99.90;;;;;;5035124;28;20052;-72
2022/07/23 04:45:04;;;;;;;1999.90;999.90;;;15.20;99.90;;;;;;5034861;28;20025;-71
2022/07/23 04:47:30;;;;;;;1999.90;999.90;;;15.20;99.90;;;;;;5034659;28;20024;-72
2022/07/23 04:49:56;;;;;;;1999.90;999.90;;;15.20;99.90;;;;;;5034714;28;20485;-72
2022/07/23 04:52:22;;;;;;;1999.90;999.90;;;15.20;99.90;;;;;;5034614;28;20020;-72
2022/07/23 04:54:48;;;;;;;1999.90;999.90;;;15.20;99.90;;;;;;5034560;28;20033;-71
2022/07/23 04:57:13;;;;;;;1999.90;999.90;;;15.10;99.90;;;;;;5034532;28;20144;-72
2022/07/23 04:59:39;;;;;;;1999.90;999.90;;;15.10;99.90;;;;;;5034607;28;20044;-72
2022/07/23 05:02:05;;;;;;;1999.90;999.90;;;15.20;99.90;;;;;;5034515;28;20030;-72
2022/07/23 05:04:31;;;;;;;1999.90;999.90;;;15.20;99.90;;;;;;5022373;28;20041;-71
2022/07/23 05:06:57;;;;;;;1999.90;999.90;;;15.10;99.90;;;;;;5014448;28;20053;-71
2022/07/23 05:09:23;;;;;;;1999.90;999.90;;;15.20;99.90;;;;;;5013994;28;20030;-72
2022/07/23 05:11:48;;;;;;;1999.90;999.90;;;15.10;99.90;;;;;;5013995;28;20026;-72
2022/07/23 05:14:14;;;;;;;1999.90;999.90;;;15.20;99.90;;;;;;5014550;28;20048;-72
2022/07/23 05:16:40;;;;;;;1999.90;999.90;;;15.20;99.90;;;;;;5014285;28;20474;-72
2022/07/23 05:19:05;;;;;;;1999.90;999.90;;;15.10;99.90;;;;;;5014153;28;20030;-71
2022/07/23 05:21:31;;;;;;;1999.90;999.90;;;15.10;99.90;;;;;;5014175;28;20045;-71
2022/07/23 05:23:57;;;;;;;1999.90;999.90;;;15.20;99.90;;;;;;5014448;28;20032;-72
2022/07/23 05:26:23;;;;;;;1999.90;999.90;;;15.20;99.90;;;;;;5013970;28;20030;-72
2022/07/23 05:28:48;;;;;;;1999.90;999.90;;;15.30;99.90;;;;;;5013889;28;20057;-72
2022/07/23 05:31:14;;;;;;;1999.90;999.90;;;15.30;99.90;;;;;;5014312;28;20053;-72
2022/07/23 05:33:39;;;;;;;1999.90;999.90;;;15.40;99.90;;;;;;5013176;28;20030;-71
2022/07/23 05:36:05;;;;;;;1999.90;999.90;;;15.40;99.90;;;;;;5022502;28;20056;-72
2022/07/23 05:38:32;;;;;;;1999.90;999.90;;;15.50;99.90;;;;;;5033451;28;20095;-72
2022/07/23 05:40:58;;;;;;;1999.90;999.90;;;15.60;99.90;;;;;;5033495;28;20030;-72
2022/07/23 05:43:24;;;;;;;1999.90;999.90;;;15.70;99.90;;;;;;5033898;28;20493;-72
2022/07/23 05:45:49;;;;;;;1999.90;999.90;;;15.80;99.90;;;;;;5033761;28;20033;-72
2022/07/23 05:48:15;;;;;;;1999.90;999.90;;;15.80;99.90;;;;;;5033592;28;20029;-70
2022/07/23 05:50:41;;;;;;;1999.90;999.90;;;15.90;99.90;;;;;;5033393;28;20049;-72
2022/07/23 05:53:07;;;;;;;1999.90;999.90;;;16.00;99.90;;;;;;5033630;28;20037;-72
2022/07/23 05:55:33;;;;;;;1999.90;999.90;;;16.00;99.90;;;;;;5033102;28;20020;-71
2022/07/23 05:57:58;;;;;;;1999.90;999.90;;;16.10;99.90;;;;;;5033238;28;20100;-72
2022/07/23 06:00:26;;;;;;;1999.90;999.90;;;16.10;99.90;;;;;;5033491;28;20026;-72
2022/07/23 06:02:52;;;;;;;1999.90;999.90;;;16.20;99.90;;;;;;5033309;28;20401;-72
2022/07/23 06:05:17;;;;;;;1999.90;999.90;;;16.30;99.90;;;;;;5014925;28;20022;-71
2022/07/23 06:07:43;;;;;;;1999.90;999.90;;;16.40;99.90;;;;;;5013309;28;20180;-71
2022/07/23 06:10:09;;;;;;;1999.90;999.90;;;16.50;99.90;;;;;;5013166;28;20014;-72
2022/07/23 06:12:35;;;;;;;1999.90;999.90;;;16.50;99.90;;;;;;5013271;28;20025;-71
2022/07/23 06:15:01;;;;;;;1999.90;999.90;;;16.70;99.90;;;;;;5013651;28;20392;-71
2022/07/23 06:17:27;;;;;;;1999.90;999.90;;;16.70;99.90;;;;;;5013146;28;20037;-72
2022/07/23 06:19:53;;;;;;;1999.90;999.90;;;16.80;99.90;;;;;;5012996;28;20018;-71
2022/07/23 06:22:19;;;;;;;1999.90;999.90;;;16.80;99.90;;;;;;5013296;28;20030;-72
2022/07/23 06:24:45;;;;;;;1999.90;999.90;;;16.90;99.90;;;;;;5013186;28;20099;-72
2022/07/23 06:27:11;;;;;;;1999.90;999.90;;;17.10;99.90;;;;;;5013124;28;20052;-71
2022/07/23 06:29:37;;;;;;;1999.90;999.90;;;17.10;99.90;;;;;;5013030;28;20054;-72
2022/07/23 06:32:03;;;;;;;1999.90;999.90;;;17.20;99.90;;;;;;5013046;28;20080;-72
2022/07/23 06:34:29;;;;;;;1999.90;999.90;;;17.30;99.90;;;;;;5012569;28;20022;-71
2022/07/23 06:36:54;;;;;;;1999.90;999.90;;;17.40;99.90;;;;;;5013510;28;20025;-71
2022/07/23 06:39:20;;;;;;;1999.90;999.90;;;17.50;99.90;;;;;;5031076;28;20022;-71
2022/07/23 06:41:46;;;;;;;1999.90;999.90;;;17.60;99.90;;;;;;5032895;28;20111;-71
2022/07/23 06:44:11;;;;;;;1999.90;999.90;;;17.90;99.90;;;;;;5033269;28;20029;-72
2022/07/23 06:46:37;;;;;;;1999.90;999.90;;;18.20;99.90;;;;;;5032772;28;20049;-72
2022/07/23 06:49:04;;;;;;;1999.90;999.90;;;18.30;99.90;;;;;;5033071;28;20061;-72
2022/07/23 06:51:30;;;;;;;1999.90;999.90;;;18.50;99.90;;;;;;5032807;28;20163;-71
2022/07/23 06:53:55;;;;;;;1999.90;999.90;;;18.50;99.90;;;;;;5033197;28;20060;-71
2022/07/23 06:56:21;;;;;;;1999.90;999.90;;;18.60;99.90;;;;;;5032415;28;20037;-72
2022/07/23 06:58:47;;;;;;;1999.90;999.90;;;18.80;99.90;;;;;;5032787;28;20026;-71
2022/07/23 07:01:12;;;;;;;1999.90;999.90;;;18.80;99.90;;;;;;5032673;28;20415;-71
2022/07/23 07:03:38;;;;;;;1999.90;999.90;;;18.80;99.90;;;;;;5028053;28;20089;-73
2022/07/23 07:06:04;;;;;;;1999.90;999.90;;;18.90;99.90;;;;;;5013110;28;20064;-71
2022/07/23 07:08:30;;;;;;;1999.90;999.90;;;19.00;99.90;;;;;;5013091;28;20026;-71
2022/07/23 07:10:55;;;;;;;1999.90;999.90;;;19.30;99.90;;;;;;5012597;28;20383;-73
2022/07/23 07:13:21;;;;;;;1999.90;999.90;;;19.40;99.90;;;;;;5013104;28;20097;-72
2022/07/23 07:15:47;;;;;;;1999.90;999.90;;;19.50;99.90;;;;;;5011721;28;20026;-71
2022/07/23 07:18:12;;;;;;;1999.90;999.90;;;19.50;99.90;;;;;;5012916;28;20028;-71
2022/07/23 07:20:38;;;;;;;1999.90;999.90;;;19.70;99.90;;;;;;5012842;28;20034;-73
2022/07/23 07:23:04;;;;;;;1999.90;999.90;;;19.90;99.90;;;;;;5013009;28;20473;-72
2022/07/23 07:25:29;;;;;;;1999.90;999.90;;;20.00;99.90;;;;;;5012605;28;20030;-72
2022/07/23 07:27:55;;;;;;;1999.90;999.90;;;19.90;99.90;;;;;;5012432;28;20482;-71
2022/07/23 07:30:21;;;;;;;1999.90;999.90;;;19.90;99.90;;;;;;5011341;28;20083;-72
2022/07/23 07:32:46;;;;;;;1999.90;999.90;;;19.90;99.90;;;;;;5016459;28;20371;-72
2022/07/23 07:35:12;;;;;;;1999.90;999.90;;;19.90;99.90;;;;;;5015489;28;20054;-72
2022/07/23 07:37:38;;;;;;;1999.90;999.90;;;19.90;99.90;;;;;;5020372;28;20024;-73
2022/07/23 07:40:04;;;;;;;1999.90;999.90;;;19.90;99.90;;;;;;5035431;28;20025;-72
2022/07/23 07:42:30;;;;;;;1999.90;999.90;;;20.00;99.90;;;;;;5036470;28;20048;-72
2022/07/23 07:44:55;;;;;;;1999.90;999.90;;;20.20;99.90;;;;;;5035879;28;20480;-72
2022/07/23 07:47:21;;;;;;;1999.90;999.90;;;21.10;99.90;;;;;;5036012;28;20022;-72
2022/07/23 07:49:46;;;;;;;1999.90;999.90;;;23.60;99.90;;;;;;5035833;28;20025;-73
2022/07/23 07:52:12;;;;;;;1999.90;999.90;;;25.40;97.60;;;;;;5035646;28;20021;-72
2022/07/23 07:54:38;;;;;;;1999.90;999.90;;;26.90;95.00;;;;;;5035790;28;20507;-72
2022/07/23 07:57:03;;;;;;;1999.90;999.90;;;27.80;93.10;;;;;;5035709;28;20021;-71
2022/07/23 07:59:29;;;;;;;1999.90;999.90;;;28.20;92.10;;;;;;5035888;28;20033;-73
2022/07/23 08:01:55;;;;;;;1999.90;999.90;;;28.90;92.00;;;;;;5035064;28;20098;-73
2022/07/23 08:04:20;;;;;;;1999.90;999.90;;;29.40;91.60;;;;;;5035367;28;20484;-73
2022/07/23 08:06:46;;;;;;;1999.90;999.90;;;29.20;91.10;;;;;;5035714;28;20025;-72
2022/07/23 08:09:11;;;;;;;1999.90;999.90;;;28.90;90.50;;;;;;5035472;28;20029;-70
2022/07/23 08:11:37;;;;;;;1999.90;999.90;;;30.10;90.10;;;;;;5035087;28;20029;-69
2022/07/23 08:14:03;;;;;;;1999.90;999.90;;;30.50;88.20;;;;;;5035301;28;20477;-71
2022/07/23 08:16:28;;;;;;;1999.90;999.90;;;30.60;88.70;;;;;;5035316;28;20421;-72
2022/07/23 08:18:54;;;;;;;1999.90;999.90;;;30.80;88.70;;;;;;5035121;28;20025;-72
2022/07/23 08:21:20;;;;;;;1999.90;999.90;;;31.30;86.30;;;;;;5035086;28;20485;-70
2022/07/23 08:23:45;;;;;;;1999.90;999.90;;;31.50;84.60;;;;;;5035373;28;20113;-70
2022/07/23 08:26:12;;;;;;;1999.90;999.90;;;31.80;85.70;;;;;;5034947;28;20021;-72
2022/07/23 08:28:37;;;;;;;1999.90;999.90;;;31.40;85.40;;;;;;5034578;28;20125;-72
2022/07/23 08:31:05;;;;;;;1999.90;999.90;;;31.90;84.80;;;;;;5035544;28;20053;-70
2022/07/23 08:33:31;;;;;;;1999.90;999.90;;;32.30;83.90;;;;;;5035032;28;20165;-72
2022/07/23 08:35:57;;;;;;;1999.90;999.90;;;32.60;82.10;;;;;;5034527;28;20022;-71
2022/07/23 08:38:23;;;;;;;1999.90;999.90;;;32.80;81.60;;;;;;5034944;28;20033;-70
2022/07/23 08:40:51;;;;;;;1999.90;999.90;;;32.60;82.10;;;;;;5034438;28;20102;-70
2022/07/23 08:43:19;;;;;;;1999.90;999.90;;;32.80;81.30;;;;;;5034549;28;20075;-72
2022/07/23 08:45:48;;;;;;;1999.90;999.90;;;33.00;80.50;;;;;;5035013;28;20036;-72
2022/07/23 08:48:18;;;;;;;1999.90;999.90;;;33.60;80.50;;;;;;5035007;28;20439;-70
2022/07/23 08:50:47;;;;;;;1999.90;999.90;;;33.40;79.20;;;;;;5034957;28;20040;-70
2022/07/23 08:53:14;;;;;;;1999.90;999.90;;;33.50;79.70;;;;;;5035318;28;20076;-72
2022/07/23 08:55:42;;;;;;;1999.90;999.90;;;33.60;78.40;;;;;;5034497;28;20029;-72
2022/07/23 08:58:08;;;;;;;1999.90;999.90;;;32.80;78.80;;;;;;5034416;28;20030;-72
2022/07/23 09:00:34;;;;;;;1999.90;999.90;;;32.40;80.30;;;;;;5034878;28;20026;-72
2022/07/23 09:03:00;;;;;;;1999.90;999.90;;;32.40;79.30;;;;;;5034248;28;20423;-71
2022/07/23 09:05:26;;;;;;;1999.90;999.90;;;32.20;79.80;;;;;;5034271;28;20032;-72
2022/07/23 09:08:08;;;;;;;1999.90;999.90;;;33.00;79.60;;;;;;5034612;28;20392;-72
2022/07/23 09:10:51;;;;;;;1999.90;999.90;;;33.50;78.10;;;;;;5034159;28;20500;-72
2022/07/23 09:13:49;;;;;;;1999.90;999.90;;;32.20;78.80;;;;;;5049358;28;20500;-72
2022/07/23 09:16:21;;;;;;;1999.90;999.90;;;31.90;80.20;;;;;;5034234;28;20100;-72
2022/07/23 09:18:50;;;;;;;1999.90;999.90;;;32.00;80.50;;;;;;5033772;28;20048;-72
2022/07/23 09:21:30;;;;;;;1999.90;999.90;;;33.10;80.40;;;;;;5034029;28;20057;-72
2022/07/23 09:24:10;;;;;;;1999.90;999.90;;;34.10;79.50;;;;;;5034385;28;20034;-72
2022/07/23 09:26:36;;;;;;;1999.90;999.90;;;34.30;77.50;;;;;;5033360;28;20082;-72
2022/07/23 09:29:04;;;;;;;1999.90;999.90;;;34.40;78.50;;;;;;5033570;28;20108;-71
2022/07/23 09:31:46;;;;;;;1999.90;999.90;;;33.70;78.30;;;;;;5034024;28;20064;-72
2022/07/23 09:34:13;;;;;;;1999.90;999.90;;;34.80;77.70;;;;;;5033713;28;20022;-72
2022/07/23 09:36:40;;;;;;;1999.90;999.90;;;34.90;78.20;;;;;;5033209;28;20033;-72
2022/07/23 09:39:06;;;;;;;1999.90;999.90;;;34.60;75.70;;;;;;5033329;28;20078;-71
2022/07/23 09:41:44;;;;;;;1999.90;999.90;;;33.40;77.00;;;;;;5033493;28;20032;-71
2022/07/23 09:44:16;;;;;;;1999.90;999.90;;;32.90;77.70;;;;;;5033835;28;20101;-72
2022/07/23 09:46:43;;;;;;;1999.90;999.90;;;31.70;80.10;;;;;;5033729;28;20053;-72
2022/07/23 09:49:20;;;;;;;1999.90;999.90;;;32.60;79.90;;;;;;5033256;28;20029;-72
2022/07/23 09:51:57;;;;;;;1999.90;999.90;;;32.70;79.70;;;;;;5033732;28;20484;-70
2022/07/23 09:54:34;;;;;;;1999.90;999.90;;;33.10;79.50;;;;;;5033099;28;20041;-72
2022/07/23 09:57:04;;;;;;;1999.90;999.90;;;33.90;78.20;;;;;;5033565;28;20096;-71
2022/07/23 09:59:33;;;;;;;1999.90;999.90;;;32.80;79.50;;;;;;5033484;28;20025;-72
2022/07/23 10:02:01;;;;;;;1999.90;999.90;;;33.00;78.40;;;;;;5033286;28;20048;-71
2022/07/23 10:04:29;;;;;;;1999.90;999.90;;;33.80;77.90;;;;;;5033342;28;20079;-72
2022/07/23 10:07:00;;;;;;;1999.90;999.90;;;34.40;77.80;;;;;;5033675;28;20037;-71
2022/07/23 10:09:32;;;;;;;1999.90;999.90;;;35.00;76.70;;;;;;5032996;28;20017;-71
2022/07/23 10:12:25;;;;;;;1999.90;999.90;;;33.90;76.70;;;;;;5033451;28;20021;-73
2022/07/23 10:14:46;;;;;;;1999.90;999.90;;;33.90;78.00;;;;;;5032351;28;20036;-71
2022/07/23 10:17:12;;;;;;;1999.90;999.90;;;34.50;78.20;;;;;;5033189;28;20102;-71
2022/07/23 10:19:38;;;;;;;1999.90;999.90;;;34.20;76.00;;;;;;5032857;28;20037;-71
2022/07/23 10:22:13;;;;;;;1999.90;999.90;;;34.70;75.90;;;;;;5033212;28;20034;-71
2022/07/23 10:25:05;;;;;;;1999.90;999.90;;;34.40;76.30;;;;;;5032853;28;20025;-72
2022/07/23 10:27:43;;;;;;;1999.90;999.90;;;34.70;76.10;;;;;;5032965;28;20393;-73
2022/07/23 10:30:36;;;;;;;1999.90;999.90;;;35.20;75.10;;;;;;5033097;28;20013;-73
2022/07/23 10:33:27;;;;;;;1999.90;999.90;;;34.90;74.80;;;;;;5033039;28;20035;-73
2022/07/23 10:36:17;;;;;;;1999.90;999.90;;;34.80;75.10;;;;;;5032890;28;20021;-72
2022/07/23 10:38:51;;;;;;;1999.90;999.90;;;32.70;77.90;;;;;;5032999;28;20276;-72
2022/07/23 10:41:34;;;;;;;1999.90;999.90;;;33.40;77.30;;;;;;5032727;28;20029;-72
2022/07/23 10:44:14;;;;;;;1999.90;999.90;;;32.60;76.50;;;;;;5032783;28;20389;-71
2022/07/23 10:49:42;;;;;;;;;;;33.60;75.60;;;;;;5033187;28;20112;-71
2022/07/23 10:52:13;;;;;;;1999.90;999.90;;;34.00;75.60;;;;;;5033043;28;19945;-73
2022/07/23 10:54:50;;;;;;;1999.90;999.90;;;34.70;74.50;;;;;;5032619;28;20025;-72
2022/07/23 10:57:22;;;;;;;1999.90;999.90;;;35.40;73.40;;;;;;5033028;28;20053;-71
2022/07/23 11:00:09;;;;;;;1999.90;999.90;;;35.40;73.90;;;;;;5032760;28;20400;-73
2022/07/23 11:02:36;;;;;;;1999.90;999.90;;;35.20;73.10;;;;;;5032446;28;20056;-73
2022/07/23 11:05:06;;;;;;;1999.90;999.90;;;34.80;73.70;;;;;;5029239;28;20029;-73
2022/07/23 11:07:32;;;;;;;1999.90;999.90;;;34.70;73.00;;;;;;5016802;28;20504;-72
2022/07/23 11:09:58;;;;;;;1999.90;999.90;;;33.60;74.20;;;;;;5016512;28;20045;-72
2022/07/23 11:12:29;;;;;;;1999.90;999.90;;;33.30;74.70;;;;;;5017061;28;20041;-72
2022/07/23 11:15:01;;;;;;;1999.90;999.90;;;33.20;75.30;;;;;;5016717;28;20397;-71
2022/07/23 11:17:27;;;;;;;;;;;33.20;74.80;;;;;;5017235;28;20489;-71
2022/07/23 11:20:11;;;;;;;1999.90;999.90;;;33.00;75.10;;;;;;5016452;28;19945;-72
2022/07/23 11:22:37;;;;;;;1999.90;999.90;;;31.80;75.60;;;;;;5016195;28;20026;-70
2022/07/23 11:25:04;;;;;;;1999.90;999.90;;;32.10;75.20;;;;;;5016424;28;20523;-72
2022/07/23 11:27:45;;;;;;;1999.90;999.90;;;31.80;76.50;;;;;;5016266;28;20455;-72
2022/07/23 11:30:31;;;;;;;1999.90;999.90;;;31.60;76.70;;;;;;5016702;28;20404;-70
2022/07/23 11:33:08;;;;;;;1999.90;999.90;;;31.40;75.90;;;;;;5016017;28;20029;-72
2022/07/23 11:35:38;;;;;;;1999.90;999.90;;;31.80;76.80;;;;;;5016005;28;20029;-72
2022/07/23 11:38:21;;;;;;;1999.90;999.90;;;31.40;77.60;;;;;;5022922;28;20389;-71
2022/07/23 11:40:58;;;;;;;1999.90;999.90;;;32.10;74.90;;;;;;5035555;28;20021;-72
2022/07/23 11:43:25;;;;;;;1999.90;999.90;;;32.60;75.30;;;;;;5036202;28;20508;-72
2022/07/23 11:45:58;;;;;;;1999.90;999.90;;;32.70;74.60;;;;;;5035922;28;20547;-72
2022/07/23 11:48:29;;;;;;;1999.90;999.90;;;32.80;74.00;;;;;;5036019;28;20083;-72
2022/07/23 11:50:56;;;;;;;1999.90;999.90;;;32.60;75.90;;;;;;5035605;28;20060;-70
2022/07/23 11:53:30;;;;;;;1999.90;999.90;;;30.40;78.80;;;;;;5035813;28;20032;-73
2022/07/23 11:56:10;;;;;;;1999.90;999.90;;;28.90;81.00;;;;;;5035543;28;20025;-74
2022/07/23 11:58:37;;;;;;;1999.90;999.90;;;27.50;82.30;;;;;;5035470;28;20032;-73
2022/07/23 12:01:03;;;;;;;1999.90;999.90;;;27.40;82.40;;;;;;5035585;28;20061;-72
2022/07/23 12:03:29;;;;;;;1999.90;999.90;;;27.10;82.90;;;;;;5035252;28;20392;-72
2022/07/23 12:05:59;;;;;;;1999.90;999.90;;;26.90;83.70;;;;;;5023675;28;20029;-72
2022/07/23 12:08:25;;;;;;;1999.90;999.90;;;26.70;84.10;;;;;;5015764;28;20040;-73
2022/07/23 12:10:50;;;;;;;1999.90;999.90;;;26.80;83.20;;;;;;5015555;28;20022;-74